sensor_id;sensor_type;location;lat;lon;timestamp;P1;durP1;ratioP1;P2;durP2;ratioP2
72198;SDS011;60103;51.014;16.992;2023-04-24T00:01:04;24.30;;;11.80;;
72198;SDS011;60103;51.014;16.992;2023-04-24T00:03:36;23.80;;;12.60;;
72198;SDS011;60103;51.014;16.992;2023-04-24T00:06:05;22.40;;;12.60;;
72198;SDS011;60103;51.014;16.992;2023-04-24T00:08:36;23.20;;;11.60;;
72198;SDS011;60103;51.014;16.992;2023-04-24T00:11:04;21.90;;;11.30;;
72198;SDS011;60103;51.014;16.992;2023-04-24T00:13:33;19.40;;;9.30;;
72198;SDS011;60103;51.014;16.992;2023-04-24T00:16:03;21.10;;;11.40;;
72198;SDS011;60103;51.014;16.992;2023-04-24T00:18:33;21.60;;;11.80;;
72198;SDS011;60103;51.014;16.992;2023-04-24T00:21:02;23.10;;;14.40;;
72198;SDS011;60103;51.014;16.992;2023-04-24T00:23:31;19.90;;;11.70;;
72198;SDS011;60103;51.014;16.992;2023-04-24T00:26:00;23.20;;;11.80;;
72198;SDS011;60103;51.014;16.992;2023-04-24T00:28:29;22.50;;;11.50;;
72198;SDS011;60103;51.014;16.992;2023-04-24T00:30:58;19.90;;;10.90;;
72198;SDS011;60103;51.014;16.992;2023-04-24T00:33:27;20.70;;;11.30;;
72198;SDS011;60103;51.014;16.992;2023-04-24T00:35:55;18.60;;;10.40;;
72198;SDS011;60103;51.014;16.992;2023-04-24T00:38:24;22.00;;;10.90;;
72198;SDS011;60103;51.014;16.992;2023-04-24T00:40:54;21.60;;;10.10;;
72198;SDS011;60103;51.014;16.992;2023-04-24T00:43:23;21.30;;;11.20;;
72198;SDS011;60103;51.014;16.992;2023-04-24T00:45:51;20.00;;;10.00;;
72198;SDS011;60103;51.014;16.992;2023-04-24T00:48:20;18.50;;;10.00;;
72198;SDS011;60103;51.014;16.992;2023-04-24T00:50:49;17.20;;;9.20;;
72198;SDS011;60103;51.014;16.992;2023-04-24T00:53:18;17.00;;;9.20;;
72198;SDS011;60103;51.014;16.992;2023-04-24T00:55:47;19.20;;;10.40;;
72198;SDS011;60103;51.014;16.992;2023-04-24T00:58:16;17.00;;;8.90;;
72198;SDS011;60103;51.014;16.992;2023-04-24T01:00:46;18.40;;;9.10;;
72198;SDS011;60103;51.014;16.992;2023-04-24T01:03:16;16.80;;;8.90;;
72198;SDS011;60103;51.014;16.992;2023-04-24T01:05:47;20.20;;;9.10;;
72198;SDS011;60103;51.014;16.992;2023-04-24T01:08:16;15.90;;;8.70;;
72198;SDS011;60103;51.014;16.992;2023-04-24T01:10:45;17.60;;;8.70;;
72198;SDS011;60103;51.014;16.992;2023-04-24T01:13:15;14.30;;;7.90;;
72198;SDS011;60103;51.014;16.992;2023-04-24T01:15:45;14.70;;;8.00;;
72198;SDS011;60103;51.014;16.992;2023-04-24T01:18:14;15.00;;;8.00;;
72198;SDS011;60103;51.014;16.992;2023-04-24T01:20:44;16.90;;;9.30;;
72198;SDS011;60103;51.014;16.992;2023-04-24T01:23:13;17.10;;;8.90;;
72198;SDS011;60103;51.014;16.992;2023-04-24T01:25:44;13.50;;;6.70;;
72198;SDS011;60103;51.014;16.992;2023-04-24T01:28:13;14.60;;;6.90;;
72198;SDS011;60103;51.014;16.992;2023-04-24T01:30:43;14.60;;;6.10;;
72198;SDS011;60103;51.014;16.992;2023-04-24T01:33:12;14.40;;;7.70;;
72198;SDS011;60103;51.014;16.992;2023-04-24T01:35:41;17.00;;;8.50;;
72198;SDS011;60103;51.014;16.992;2023-04-24T01:38:09;16.20;;;7.90;;
72198;SDS011;60103;51.014;16.992;2023-04-24T01:40:39;17.90;;;8.50;;
72198;SDS011;60103;51.014;16.992;2023-04-24T01:43:07;15.60;;;8.50;;
72198;SDS011;60103;51.014;16.992;2023-04-24T01:45:36;18.40;;;8.70;;
72198;SDS011;60103;51.014;16.992;2023-04-24T01:48:05;14.00;;;7.40;;
72198;SDS011;60103;51.014;16.992;2023-04-24T01:50:35;15.80;;;7.60;;
72198;SDS011;60103;51.014;16.992;2023-04-24T01:53:04;14.90;;;8.10;;
72198;SDS011;60103;51.014;16.992;2023-04-24T01:55:33;14.70;;;8.10;;
72198;SDS011;60103;51.014;16.992;2023-04-24T01:58:01;17.70;;;8.00;;
72198;SDS011;60103;51.014;16.992;2023-04-24T02:00:31;16.30;;;8.20;;
72198;SDS011;60103;51.014;16.992;2023-04-24T02:02:59;15.70;;;8.10;;
72198;SDS011;60103;51.014;16.992;2023-04-24T02:05:30;14.50;;;7.70;;
72198;SDS011;60103;51.014;16.992;2023-04-24T02:07:59;13.50;;;7.50;;
72198;SDS011;60103;51.014;16.992;2023-04-24T02:10:29;14.90;;;7.10;;
72198;SDS011;60103;51.014;16.992;2023-04-24T02:12:59;14.80;;;7.50;;
72198;SDS011;60103;51.014;16.992;2023-04-24T02:15:28;14.70;;;8.00;;
72198;SDS011;60103;51.014;16.992;2023-04-24T02:17:58;14.30;;;7.50;;
72198;SDS011;60103;51.014;16.992;2023-04-24T02:20:27;15.50;;;8.00;;
72198;SDS011;60103;51.014;16.992;2023-04-24T02:22:55;14.90;;;7.80;;
72198;SDS011;60103;51.014;16.992;2023-04-24T02:25:25;13.40;;;7.50;;
72198;SDS011;60103;51.014;16.992;2023-04-24T02:27:55;13.70;;;7.50;;
72198;SDS011;60103;51.014;16.992;2023-04-24T02:30:24;15.60;;;8.20;;
72198;SDS011;60103;51.014;16.992;2023-04-24T02:32:53;15.60;;;7.80;;
72198;SDS011;60103;51.014;16.992;2023-04-24T02:35:23;13.80;;;7.70;;
72198;SDS011;60103;51.014;16.992;2023-04-24T02:37:52;14.30;;;7.50;;
72198;SDS011;60103;51.014;16.992;2023-04-24T02:40:21;17.00;;;7.80;;
72198;SDS011;60103;51.014;16.992;2023-04-24T02:42:49;15.00;;;7.60;;
72198;SDS011;60103;51.014;16.992;2023-04-24T02:45:18;13.60;;;7.40;;
72198;SDS011;60103;51.014;16.992;2023-04-24T02:47:47;13.70;;;7.30;;
72198;SDS011;60103;51.014;16.992;2023-04-24T02:50:16;14.80;;;7.70;;
72198;SDS011;60103;51.014;16.992;2023-04-24T02:52:45;14.70;;;8.00;;
72198;SDS011;60103;51.014;16.992;2023-04-24T02:55:13;15.40;;;7.80;;
72198;SDS011;60103;51.014;16.992;2023-04-24T02:57:42;17.10;;;8.20;;
72198;SDS011;60103;51.014;16.992;2023-04-24T03:00:11;15.00;;;8.40;;
72198;SDS011;60103;51.014;16.992;2023-04-24T03:02:41;14.80;;;8.40;;
72198;SDS011;60103;51.014;16.992;2023-04-24T03:05:10;15.80;;;8.30;;
72198;SDS011;60103;51.014;16.992;2023-04-24T03:07:40;15.40;;;8.30;;
72198;SDS011;60103;51.014;16.992;2023-04-24T03:10:09;14.60;;;8.00;;
72198;SDS011;60103;51.014;16.992;2023-04-24T03:12:38;16.10;;;8.10;;
72198;SDS011;60103;51.014;16.992;2023-04-24T03:15:06;16.80;;;8.90;;
72198;SDS011;60103;51.014;16.992;2023-04-24T03:17:37;16.00;;;8.60;;
72198;SDS011;60103;51.014;16.992;2023-04-24T03:20:07;16.50;;;9.20;;
72198;SDS011;60103;51.014;16.992;2023-04-24T03:22:37;14.50;;;8.10;;
72198;SDS011;60103;51.014;16.992;2023-04-24T03:25:07;16.70;;;9.50;;
72198;SDS011;60103;51.014;16.992;2023-04-24T03:27:37;15.60;;;8.80;;
72198;SDS011;60103;51.014;16.992;2023-04-24T03:30:17;17.20;;;9.10;;
72198;SDS011;60103;51.014;16.992;2023-04-24T03:32:49;16.40;;;9.10;;
72198;SDS011;60103;51.014;16.992;2023-04-24T03:35:22;16.80;;;8.80;;
72198;SDS011;60103;51.014;16.992;2023-04-24T03:37:51;17.10;;;8.50;;
72198;SDS011;60103;51.014;16.992;2023-04-24T03:40:49;15.80;;;8.40;;
72198;SDS011;60103;51.014;16.992;2023-04-24T03:43:38;16.70;;;9.20;;
72198;SDS011;60103;51.014;16.992;2023-04-24T03:46:08;16.60;;;9.10;;
72198;SDS011;60103;51.014;16.992;2023-04-24T03:48:41;15.10;;;7.90;;
72198;SDS011;60103;51.014;16.992;2023-04-24T03:51:11;14.00;;;7.20;;
72198;SDS011;60103;51.014;16.992;2023-04-24T03:53:43;15.60;;;8.30;;
72198;SDS011;60103;51.014;16.992;2023-04-24T03:56:12;15.50;;;8.90;;
72198;SDS011;60103;51.014;16.992;2023-04-24T03:58:41;16.80;;;7.80;;
72198;SDS011;60103;51.014;16.992;2023-04-24T04:01:11;14.90;;;7.60;;
72198;SDS011;60103;51.014;16.992;2023-04-24T04:03:46;13.20;;;7.70;;
72198;SDS011;60103;51.014;16.992;2023-04-24T04:06:18;13.30;;;7.50;;
72198;SDS011;60103;51.014;16.992;2023-04-24T04:08:47;13.90;;;7.10;;
72198;SDS011;60103;51.014;16.992;2023-04-24T04:11:17;14.50;;;8.00;;
72198;SDS011;60103;51.014;16.992;2023-04-24T04:13:46;15.20;;;7.20;;
72198;SDS011;60103;51.014;16.992;2023-04-24T04:16:18;15.40;;;7.70;;
72198;SDS011;60103;51.014;16.992;2023-04-24T04:18:48;12.90;;;7.30;;
72198;SDS011;60103;51.014;16.992;2023-04-24T04:21:18;15.40;;;8.00;;
72198;SDS011;60103;51.014;16.992;2023-04-24T04:23:47;13.60;;;7.50;;
72198;SDS011;60103;51.014;16.992;2023-04-24T04:26:20;13.10;;;7.10;;
72198;SDS011;60103;51.014;16.992;2023-04-24T04:28:58;13.60;;;6.50;;
72198;SDS011;60103;51.014;16.992;2023-04-24T04:31:29;15.80;;;7.20;;
72198;SDS011;60103;51.014;16.992;2023-04-24T04:34:01;12.90;;;6.70;;
72198;SDS011;60103;51.014;16.992;2023-04-24T04:36:31;12.80;;;6.60;;
72198;SDS011;60103;51.014;16.992;2023-04-24T04:39:05;15.10;;;7.20;;
72198;SDS011;60103;51.014;16.992;2023-04-24T04:42:01;12.20;;;6.50;;
72198;SDS011;60103;51.014;16.992;2023-04-24T04:44:36;12.30;;;6.40;;
72198;SDS011;60103;51.014;16.992;2023-04-24T04:47:07;13.60;;;7.50;;
72198;SDS011;60103;51.014;16.992;2023-04-24T04:49:39;13.60;;;7.00;;
72198;SDS011;60103;51.014;16.992;2023-04-24T04:52:14;14.20;;;6.90;;
72198;SDS011;60103;51.014;16.992;2023-04-24T04:54:45;14.10;;;7.10;;
72198;SDS011;60103;51.014;16.992;2023-04-24T04:57:14;15.40;;;7.90;;
72198;SDS011;60103;51.014;16.992;2023-04-24T04:59:45;14.00;;;7.60;;
72198;SDS011;60103;51.014;16.992;2023-04-24T05:02:20;13.20;;;7.50;;
72198;SDS011;60103;51.014;16.992;2023-04-24T05:04:49;14.50;;;7.10;;
72198;SDS011;60103;51.014;16.992;2023-04-24T05:07:18;14.90;;;8.20;;
72198;SDS011;60103;51.014;16.992;2023-04-24T05:09:50;14.40;;;6.60;;
72198;SDS011;60103;51.014;16.992;2023-04-24T05:12:20;14.90;;;7.30;;
72198;SDS011;60103;51.014;16.992;2023-04-24T05:14:51;12.60;;;6.40;;
72198;SDS011;60103;51.014;16.992;2023-04-24T05:17:20;13.30;;;6.90;;
72198;SDS011;60103;51.014;16.992;2023-04-24T05:19:49;12.40;;;6.90;;
72198;SDS011;60103;51.014;16.992;2023-04-24T05:22:18;12.40;;;7.10;;
72198;SDS011;60103;51.014;16.992;2023-04-24T05:24:51;14.00;;;6.20;;
72198;SDS011;60103;51.014;16.992;2023-04-24T05:27:34;10.40;;;5.20;;
72198;SDS011;60103;51.014;16.992;2023-04-24T05:30:06;10.70;;;5.10;;
72198;SDS011;60103;51.014;16.992;2023-04-24T05:32:36;12.70;;;5.10;;
72198;SDS011;60103;51.014;16.992;2023-04-24T05:35:05;10.60;;;5.30;;
72198;SDS011;60103;51.014;16.992;2023-04-24T05:37:36;9.40;;;4.50;;
72198;SDS011;60103;51.014;16.992;2023-04-24T05:40:06;10.00;;;4.80;;
72198;SDS011;60103;51.014;16.992;2023-04-24T05:42:35;9.30;;;4.80;;
72198;SDS011;60103;51.014;16.992;2023-04-24T05:45:05;9.70;;;5.10;;
72198;SDS011;60103;51.014;16.992;2023-04-24T05:47:35;10.30;;;4.90;;
72198;SDS011;60103;51.014;16.992;2023-04-24T05:50:05;10.40;;;4.80;;
72198;SDS011;60103;51.014;16.992;2023-04-24T05:52:35;11.90;;;5.00;;
72198;SDS011;60103;51.014;16.992;2023-04-24T05:55:08;10.00;;;4.80;;
72198;SDS011;60103;51.014;16.992;2023-04-24T05:57:39;9.70;;;4.90;;
72198;SDS011;60103;51.014;16.992;2023-04-24T06:00:09;12.70;;;5.40;;
72198;SDS011;60103;51.014;16.992;2023-04-24T06:02:47;11.20;;;5.30;;
72198;SDS011;60103;51.014;16.992;2023-04-24T06:05:17;11.00;;;5.00;;
72198;SDS011;60103;51.014;16.992;2023-04-24T06:07:47;10.00;;;5.20;;
72198;SDS011;60103;51.014;16.992;2023-04-24T06:10:17;11.90;;;5.10;;
72198;SDS011;60103;51.014;16.992;2023-04-24T06:12:46;11.00;;;5.40;;
72198;SDS011;60103;51.014;16.992;2023-04-24T06:15:17;10.60;;;5.40;;
72198;SDS011;60103;51.014;16.992;2023-04-24T06:17:57;10.40;;;5.10;;
72198;SDS011;60103;51.014;16.992;2023-04-24T06:20:26;11.10;;;4.90;;
72198;SDS011;60103;51.014;16.992;2023-04-24T06:22:55;10.70;;;5.50;;
72198;SDS011;60103;51.014;16.992;2023-04-24T06:25:25;10.10;;;5.10;;
72198;SDS011;60103;51.014;16.992;2023-04-24T06:27:55;10.30;;;5.10;;
72198;SDS011;60103;51.014;16.992;2023-04-24T06:30:25;11.00;;;5.10;;
72198;SDS011;60103;51.014;16.992;2023-04-24T06:32:56;10.90;;;5.10;;
72198;SDS011;60103;51.014;16.992;2023-04-24T06:35:37;11.80;;;4.70;;
72198;SDS011;60103;51.014;16.992;2023-04-24T06:38:06;11.40;;;5.40;;
72198;SDS011;60103;51.014;16.992;2023-04-24T06:40:35;10.10;;;5.00;;
72198;SDS011;60103;51.014;16.992;2023-04-24T06:43:05;10.40;;;5.20;;
72198;SDS011;60103;51.014;16.992;2023-04-24T06:45:34;9.80;;;4.60;;
72198;SDS011;60103;51.014;16.992;2023-04-24T06:48:03;10.80;;;5.40;;
72198;SDS011;60103;51.014;16.992;2023-04-24T06:50:33;11.10;;;5.40;;
72198;SDS011;60103;51.014;16.992;2023-04-24T06:53:02;9.40;;;4.90;;
72198;SDS011;60103;51.014;16.992;2023-04-24T06:55:30;11.40;;;5.20;;
72198;SDS011;60103;51.014;16.992;2023-04-24T06:57:59;10.40;;;5.30;;
72198;SDS011;60103;51.014;16.992;2023-04-24T07:00:28;10.50;;;5.20;;
72198;SDS011;60103;51.014;16.992;2023-04-24T07:02:58;9.60;;;4.90;;
72198;SDS011;60103;51.014;16.992;2023-04-24T07:05:27;10.60;;;4.90;;
72198;SDS011;60103;51.014;16.992;2023-04-24T07:07:56;10.60;;;5.30;;
72198;SDS011;60103;51.014;16.992;2023-04-24T07:10:28;10.20;;;4.90;;
72198;SDS011;60103;51.014;16.992;2023-04-24T07:12:58;10.20;;;5.50;;
72198;SDS011;60103;51.014;16.992;2023-04-24T07:15:27;9.30;;;4.30;;
72198;SDS011;60103;51.014;16.992;2023-04-24T07:17:56;10.30;;;4.80;;
72198;SDS011;60103;51.014;16.992;2023-04-24T07:20:25;9.20;;;4.70;;
72198;SDS011;60103;51.014;16.992;2023-04-24T07:22:55;12.00;;;4.70;;
72198;SDS011;60103;51.014;16.992;2023-04-24T07:25:24;12.00;;;5.10;;
72198;SDS011;60103;51.014;16.992;2023-04-24T07:27:53;11.00;;;5.40;;
72198;SDS011;60103;51.014;16.992;2023-04-24T07:30:21;11.10;;;5.30;;
72198;SDS011;60103;51.014;16.992;2023-04-24T07:32:51;9.90;;;5.00;;
72198;SDS011;60103;51.014;16.992;2023-04-24T07:35:19;13.60;;;5.10;;
72198;SDS011;60103;51.014;16.992;2023-04-24T07:37:49;9.40;;;4.80;;
72198;SDS011;60103;51.014;16.992;2023-04-24T07:40:21;12.40;;;5.70;;
72198;SDS011;60103;51.014;16.992;2023-04-24T07:42:50;11.10;;;6.00;;
72198;SDS011;60103;51.014;16.992;2023-04-24T07:45:19;9.30;;;5.10;;
72198;SDS011;60103;51.014;16.992;2023-04-24T07:47:49;11.00;;;5.00;;
72198;SDS011;60103;51.014;16.992;2023-04-24T07:50:19;9.70;;;4.10;;
72198;SDS011;60103;51.014;16.992;2023-04-24T07:52:48;10.80;;;5.30;;
72198;SDS011;60103;51.014;16.992;2023-04-24T07:55:17;12.60;;;5.20;;
72198;SDS011;60103;51.014;16.992;2023-04-24T07:57:50;11.00;;;5.20;;
72198;SDS011;60103;51.014;16.992;2023-04-24T08:00:19;12.20;;;5.60;;
72198;SDS011;60103;51.014;16.992;2023-04-24T08:02:49;10.20;;;5.20;;
72198;SDS011;60103;51.014;16.992;2023-04-24T08:05:18;10.80;;;5.00;;
72198;SDS011;60103;51.014;16.992;2023-04-24T08:07:47;11.70;;;6.10;;
72198;SDS011;60103;51.014;16.992;2023-04-24T08:10:18;11.30;;;5.50;;
72198;SDS011;60103;51.014;16.992;2023-04-24T08:12:48;11.40;;;5.00;;
72198;SDS011;60103;51.014;16.992;2023-04-24T08:15:17;10.50;;;4.80;;
72198;SDS011;60103;51.014;16.992;2023-04-24T08:17:46;10.80;;;5.00;;
72198;SDS011;60103;51.014;16.992;2023-04-24T08:20:15;9.40;;;4.70;;
72198;SDS011;60103;51.014;16.992;2023-04-24T08:22:44;10.00;;;4.60;;
72198;SDS011;60103;51.014;16.992;2023-04-24T08:25:15;9.80;;;4.70;;
72198;SDS011;60103;51.014;16.992;2023-04-24T08:27:45;9.60;;;4.40;;
72198;SDS011;60103;51.014;16.992;2023-04-24T08:30:14;9.30;;;4.30;;
72198;SDS011;60103;51.014;16.992;2023-04-24T08:32:44;9.10;;;4.50;;
72198;SDS011;60103;51.014;16.992;2023-04-24T08:35:13;8.80;;;3.80;;
72198;SDS011;60103;51.014;16.992;2023-04-24T08:37:42;8.60;;;3.70;;
72198;SDS011;60103;51.014;16.992;2023-04-24T08:40:12;8.80;;;3.60;;
72198;SDS011;60103;51.014;16.992;2023-04-24T08:42:43;9.80;;;4.20;;
72198;SDS011;60103;51.014;16.992;2023-04-24T08:45:13;9.40;;;4.20;;
72198;SDS011;60103;51.014;16.992;2023-04-24T08:47:41;8.70;;;4.00;;
72198;SDS011;60103;51.014;16.992;2023-04-24T08:50:11;9.70;;;4.10;;
72198;SDS011;60103;51.014;16.992;2023-04-24T08:52:40;9.30;;;4.30;;
72198;SDS011;60103;51.014;16.992;2023-04-24T08:55:11;9.70;;;4.50;;
72198;SDS011;60103;51.014;16.992;2023-04-24T08:57:39;8.70;;;4.30;;
72198;SDS011;60103;51.014;16.992;2023-04-24T09:00:09;11.20;;;4.40;;
72198;SDS011;60103;51.014;16.992;2023-04-24T09:02:41;9.90;;;4.30;;
72198;SDS011;60103;51.014;16.992;2023-04-24T09:05:12;9.00;;;4.20;;
72198;SDS011;60103;51.014;16.992;2023-04-24T09:07:41;9.50;;;4.40;;
72198;SDS011;60103;51.014;16.992;2023-04-24T09:10:14;8.70;;;4.40;;
72198;SDS011;60103;51.014;16.992;2023-04-24T09:12:43;9.10;;;4.60;;
72198;SDS011;60103;51.014;16.992;2023-04-24T09:15:13;10.90;;;4.50;;
72198;SDS011;60103;51.014;16.992;2023-04-24T09:17:43;9.80;;;4.50;;
72198;SDS011;60103;51.014;16.992;2023-04-24T09:20:13;9.20;;;4.30;;
72198;SDS011;60103;51.014;16.992;2023-04-24T09:22:42;9.10;;;4.50;;
72198;SDS011;60103;51.014;16.992;2023-04-24T09:25:12;9.40;;;4.80;;
72198;SDS011;60103;51.014;16.992;2023-04-24T09:27:42;10.60;;;4.90;;
72198;SDS011;60103;51.014;16.992;2023-04-24T09:30:12;9.40;;;4.20;;
72198;SDS011;60103;51.014;16.992;2023-04-24T09:32:44;10.40;;;4.60;;
72198;SDS011;60103;51.014;16.992;2023-04-24T09:35:14;9.90;;;5.20;;
72198;SDS011;60103;51.014;16.992;2023-04-24T09:37:45;10.50;;;4.40;;
72198;SDS011;60103;51.014;16.992;2023-04-24T09:40:19;9.60;;;4.80;;
72198;SDS011;60103;51.014;16.992;2023-04-24T09:42:54;10.00;;;4.70;;
72198;SDS011;60103;51.014;16.992;2023-04-24T09:45:38;8.70;;;4.40;;
72198;SDS011;60103;51.014;16.992;2023-04-24T09:48:11;10.50;;;4.90;;
72198;SDS011;60103;51.014;16.992;2023-04-24T09:50:40;9.60;;;5.10;;
72198;SDS011;60103;51.014;16.992;2023-04-24T09:53:15;9.20;;;4.90;;
72198;SDS011;60103;51.014;16.992;2023-04-24T09:55:45;10.00;;;4.60;;
72198;SDS011;60103;51.014;16.992;2023-04-24T09:58:24;10.20;;;5.00;;
72198;SDS011;60103;51.014;16.992;2023-04-24T10:00:57;9.30;;;4.80;;
72198;SDS011;60103;51.014;16.992;2023-04-24T10:03:27;9.80;;;5.10;;
72198;SDS011;60103;51.014;16.992;2023-04-24T10:05:59;10.30;;;5.10;;
72198;SDS011;60103;51.014;16.992;2023-04-24T10:08:35;9.70;;;5.00;;
72198;SDS011;60103;51.014;16.992;2023-04-24T10:11:04;9.20;;;4.80;;
72198;SDS011;60103;51.014;16.992;2023-04-24T10:13:33;9.70;;;5.00;;
72198;SDS011;60103;51.014;16.992;2023-04-24T10:16:03;11.70;;;5.60;;
72198;SDS011;60103;51.014;16.992;2023-04-24T10:18:32;11.30;;;5.20;;
72198;SDS011;60103;51.014;16.992;2023-04-24T10:21:02;10.00;;;5.30;;
72198;SDS011;60103;51.014;16.992;2023-04-24T10:23:31;9.10;;;5.00;;
72198;SDS011;60103;51.014;16.992;2023-04-24T10:26:00;10.50;;;6.20;;
72198;SDS011;60103;51.014;16.992;2023-04-24T10:28:30;10.30;;;5.10;;
72198;SDS011;60103;51.014;16.992;2023-04-24T10:31:00;9.70;;;4.80;;
72198;SDS011;60103;51.014;16.992;2023-04-24T10:33:29;11.90;;;5.40;;
72198;SDS011;60103;51.014;16.992;2023-04-24T10:35:59;10.20;;;5.20;;
72198;SDS011;60103;51.014;16.992;2023-04-24T10:38:28;10.50;;;5.40;;
72198;SDS011;60103;51.014;16.992;2023-04-24T10:41:19;10.70;;;5.80;;
72198;SDS011;60103;51.014;16.992;2023-04-24T10:44:06;12.80;;;5.90;;
72198;SDS011;60103;51.014;16.992;2023-04-24T10:46:43;10.10;;;5.00;;
72198;SDS011;60103;51.014;16.992;2023-04-24T10:49:13;11.40;;;5.90;;
72198;SDS011;60103;51.014;16.992;2023-04-24T10:51:46;11.70;;;6.30;;
72198;SDS011;60103;51.014;16.992;2023-04-24T10:59:51;9.90;;;4.90;;
72198;SDS011;60103;51.014;16.992;2023-04-24T11:02:38;11.00;;;5.60;;
72198;SDS011;60103;51.014;16.992;2023-04-24T11:05:13;12.00;;;5.60;;
72198;SDS011;60103;51.014;16.992;2023-04-24T11:10:45;12.30;;;5.40;;
72198;SDS011;60103;51.014;16.992;2023-04-24T11:13:16;10.70;;;5.80;;
72198;SDS011;60103;51.014;16.992;2023-04-24T11:18:42;11.50;;;5.50;;
72198;SDS011;60103;51.014;16.992;2023-04-24T11:21:19;11.60;;;6.40;;
72198;SDS011;60103;51.014;16.992;2023-04-24T11:23:48;11.50;;;5.60;;
72198;SDS011;60103;51.014;16.992;2023-04-24T11:26:18;12.00;;;6.30;;
72198;SDS011;60103;51.014;16.992;2023-04-24T11:28:49;11.20;;;5.90;;
72198;SDS011;60103;51.014;16.992;2023-04-24T11:31:38;11.10;;;6.40;;
72198;SDS011;60103;51.014;16.992;2023-04-24T11:34:18;11.90;;;5.80;;
72198;SDS011;60103;51.014;16.992;2023-04-24T11:36:48;9.70;;;5.00;;
72198;SDS011;60103;51.014;16.992;2023-04-24T11:39:19;10.50;;;5.40;;
72198;SDS011;60103;51.014;16.992;2023-04-24T11:41:47;12.30;;;5.60;;
72198;SDS011;60103;51.014;16.992;2023-04-24T11:44:16;10.70;;;6.20;;
72198;SDS011;60103;51.014;16.992;2023-04-24T11:46:49;10.50;;;6.20;;
72198;SDS011;60103;51.014;16.992;2023-04-24T11:49:19;9.70;;;5.40;;
72198;SDS011;60103;51.014;16.992;2023-04-24T11:51:48;9.80;;;5.00;;
72198;SDS011;60103;51.014;16.992;2023-04-24T11:54:22;9.60;;;5.30;;
72198;SDS011;60103;51.014;16.992;2023-04-24T11:56:51;12.20;;;5.80;;
72198;SDS011;60103;51.014;16.992;2023-04-24T11:59:20;10.90;;;5.50;;
72198;SDS011;60103;51.014;16.992;2023-04-24T12:01:49;11.20;;;5.60;;
72198;SDS011;60103;51.014;16.992;2023-04-24T12:04:18;10.80;;;5.40;;
72198;SDS011;60103;51.014;16.992;2023-04-24T12:07:01;10.10;;;5.30;;
72198;SDS011;60103;51.014;16.992;2023-04-24T12:12:27;10.50;;;6.50;;
72198;SDS011;60103;51.014;16.992;2023-04-24T12:14:58;11.40;;;5.60;;
72198;SDS011;60103;51.014;16.992;2023-04-24T12:17:29;10.10;;;5.90;;
72198;SDS011;60103;51.014;16.992;2023-04-24T12:20:00;13.20;;;5.70;;
72198;SDS011;60103;51.014;16.992;2023-04-24T12:23:27;10.90;;;6.20;;
72198;SDS011;60103;51.014;16.992;2023-04-24T12:25:33;12.30;;;5.70;;
72198;SDS011;60103;51.014;16.992;2023-04-24T12:30:38;11.50;;;6.50;;
72198;SDS011;60103;51.014;16.992;2023-04-24T12:33:09;12.80;;;6.40;;
72198;SDS011;60103;51.014;16.992;2023-04-24T12:35:39;11.00;;;5.90;;
72198;SDS011;60103;51.014;16.992;2023-04-24T12:38:10;12.30;;;5.90;;
72198;SDS011;60103;51.014;16.992;2023-04-24T12:40:42;10.90;;;5.70;;
72198;SDS011;60103;51.014;16.992;2023-04-24T12:43:16;11.60;;;5.90;;
72198;SDS011;60103;51.014;16.992;2023-04-24T12:45:48;10.70;;;5.70;;
72198;SDS011;60103;51.014;16.992;2023-04-24T12:48:17;11.30;;;6.10;;
72198;SDS011;60103;51.014;16.992;2023-04-24T12:50:46;12.70;;;6.60;;
72198;SDS011;60103;51.014;16.992;2023-04-24T12:53:16;11.70;;;6.40;;
72198;SDS011;60103;51.014;16.992;2023-04-24T12:55:44;11.70;;;6.20;;
72198;SDS011;60103;51.014;16.992;2023-04-24T12:58:15;11.40;;;6.00;;
72198;SDS011;60103;51.014;16.992;2023-04-24T13:00:44;13.70;;;6.50;;
72198;SDS011;60103;51.014;16.992;2023-04-24T13:03:14;12.00;;;6.40;;
72198;SDS011;60103;51.014;16.992;2023-04-24T13:05:44;11.40;;;5.30;;
72198;SDS011;60103;51.014;16.992;2023-04-24T13:08:15;8.50;;;3.40;;
72198;SDS011;60103;51.014;16.992;2023-04-24T13:10:43;8.10;;;2.30;;
72198;SDS011;60103;51.014;16.992;2023-04-24T13:13:13;6.50;;;2.00;;
72198;SDS011;60103;51.014;16.992;2023-04-24T13:15:43;6.70;;;2.00;;
72198;SDS011;60103;51.014;16.992;2023-04-24T13:18:12;6.10;;;1.60;;
72198;SDS011;60103;51.014;16.992;2023-04-24T13:20:41;5.00;;;1.20;;
72198;SDS011;60103;51.014;16.992;2023-04-24T13:23:10;6.10;;;0.90;;
72198;SDS011;60103;51.014;16.992;2023-04-24T13:25:40;5.10;;;0.90;;
72198;SDS011;60103;51.014;16.992;2023-04-24T13:28:09;4.20;;;1.10;;
72198;SDS011;60103;51.014;16.992;2023-04-24T13:30:38;4.70;;;1.00;;
72198;SDS011;60103;51.014;16.992;2023-04-24T13:33:07;6.20;;;1.20;;
72198;SDS011;60103;51.014;16.992;2023-04-24T13:35:36;4.50;;;1.10;;
72198;SDS011;60103;51.014;16.992;2023-04-24T13:38:05;5.20;;;1.20;;
72198;SDS011;60103;51.014;16.992;2023-04-24T13:40:36;4.20;;;0.90;;
72198;SDS011;60103;51.014;16.992;2023-04-24T13:43:05;4.10;;;1.00;;
72198;SDS011;60103;51.014;16.992;2023-04-24T13:45:34;3.00;;;0.90;;
72198;SDS011;60103;51.014;16.992;2023-04-24T13:48:03;2.90;;;0.70;;
72198;SDS011;60103;51.014;16.992;2023-04-24T13:50:32;3.60;;;0.80;;
72198;SDS011;60103;51.014;16.992;2023-04-24T13:53:01;3.90;;;0.80;;
72198;SDS011;60103;51.014;16.992;2023-04-24T13:55:30;3.90;;;0.90;;
72198;SDS011;60103;51.014;16.992;2023-04-24T13:57:59;4.40;;;0.90;;
72198;SDS011;60103;51.014;16.992;2023-04-24T14:00:30;4.50;;;1.20;;
72198;SDS011;60103;51.014;16.992;2023-04-24T14:03:01;4.20;;;0.90;;
72198;SDS011;60103;51.014;16.992;2023-04-24T14:05:30;4.90;;;1.10;;
72198;SDS011;60103;51.014;16.992;2023-04-24T14:08:00;5.30;;;1.30;;
72198;SDS011;60103;51.014;16.992;2023-04-24T14:10:29;6.00;;;1.60;;
72198;SDS011;60103;51.014;16.992;2023-04-24T14:12:58;6.00;;;1.60;;
72198;SDS011;60103;51.014;16.992;2023-04-24T14:15:27;5.30;;;1.50;;
72198;SDS011;60103;51.014;16.992;2023-04-24T14:17:57;5.80;;;1.80;;
72198;SDS011;60103;51.014;16.992;2023-04-24T14:20:26;6.90;;;2.20;;
72198;SDS011;60103;51.014;16.992;2023-04-24T14:22:56;6.00;;;1.80;;
72198;SDS011;60103;51.014;16.992;2023-04-24T14:25:27;6.80;;;2.40;;
72198;SDS011;60103;51.014;16.992;2023-04-24T14:27:56;6.60;;;1.90;;
72198;SDS011;60103;51.014;16.992;2023-04-24T14:30:24;6.20;;;2.00;;
72198;SDS011;60103;51.014;16.992;2023-04-24T14:32:54;9.90;;;2.40;;
72198;SDS011;60103;51.014;16.992;2023-04-24T14:35:23;8.70;;;2.40;;
72198;SDS011;60103;51.014;16.992;2023-04-24T14:37:54;9.50;;;3.20;;
72198;SDS011;60103;51.014;16.992;2023-04-24T14:40:23;8.80;;;2.80;;
72198;SDS011;60103;51.014;16.992;2023-04-24T14:43:12;9.30;;;3.20;;
72198;SDS011;60103;51.014;16.992;2023-04-24T14:45:41;8.40;;;2.80;;
72198;SDS011;60103;51.014;16.992;2023-04-24T14:48:10;7.70;;;2.60;;
72198;SDS011;60103;51.014;16.992;2023-04-24T14:50:40;7.80;;;2.50;;
72198;SDS011;60103;51.014;16.992;2023-04-24T14:53:09;7.60;;;2.50;;
72198;SDS011;60103;51.014;16.992;2023-04-24T14:55:38;7.70;;;1.60;;
72198;SDS011;60103;51.014;16.992;2023-04-24T14:58:07;6.30;;;1.50;;
72198;SDS011;60103;51.014;16.992;2023-04-24T15:00:37;4.60;;;1.00;;